createdAt,value
2022-10-18T00:00:06.660Z,70.08
2022-10-18T00:01:06.703Z,70.08
2022-10-18T00:02:06.886Z,70.18
2022-10-18T00:03:06.869Z,70.18
2022-10-18T00:04:06.987Z,70.08
2022-10-18T00:05:07.762Z,70.08
2022-10-18T00:06:07.143Z,69.98
2022-10-18T00:07:07.177Z,69.98
2022-10-18T00:08:07.239Z,69.98
2022-10-18T00:09:07.335Z,69.88
2022-10-18T00:10:07.380Z,69.78
2022-10-18T00:11:07.732Z,69.68
2022-10-18T00:12:07.774Z,69.68
2022-10-18T00:13:07.671Z,69.68
2022-10-18T00:14:07.828Z,69.68
2022-10-18T00:15:07.827Z,69.68
2022-10-18T00:16:07.930Z,69.57
2022-10-18T00:17:08.068Z,69.57
2022-10-18T00:18:09.311Z,69.68
2022-10-18T00:19:08.223Z,69.68
2022-10-18T00:20:08.276Z,69.68
2022-10-18T00:21:08.352Z,69.68
2022-10-18T00:22:08.439Z,69.78
2022-10-18T00:23:08.511Z,69.78
2022-10-18T00:24:12.640Z,69.68
2022-10-18T00:25:08.718Z,69.68
2022-10-18T00:26:08.819Z,69.57
2022-10-18T00:27:08.913Z,69.57
2022-10-18T00:28:08.989Z,69.57
2022-10-18T00:29:09.082Z,69.68
2022-10-18T00:30:09.160Z,69.68
2022-10-18T00:31:09.279Z,69.68
2022-10-18T00:32:09.325Z,69.68
2022-10-18T00:33:09.407Z,69.78
2022-10-18T00:34:09.537Z,69.78
2022-10-18T00:35:09.582Z,69.78
2022-10-18T00:36:09.653Z,69.78
2022-10-18T00:37:11.021Z,69.78
2022-10-18T00:38:09.875Z,69.78
2022-10-18T00:39:09.961Z,69.78
2022-10-18T00:40:10.054Z,69.78
2022-10-18T00:41:10.133Z,69.78
2022-10-18T00:42:10.224Z,69.78
2022-10-18T00:43:10.564Z,69.78
2022-10-18T00:44:10.496Z,69.68
2022-10-18T00:45:10.518Z,69.68
2022-10-18T00:46:10.596Z,69.57
2022-10-18T00:47:10.680Z,69.57
2022-10-18T00:48:10.776Z,69.47
2022-10-18T00:49:10.888Z,69.47
2022-10-18T00:50:12.521Z,69.47
2022-10-18T00:51:11.018Z,69.47
2022-10-18T00:52:11.059Z,69.47
2022-10-18T00:53:11.132Z,69.47
2022-10-18T00:54:11.239Z,69.47
2022-10-18T00:55:11.296Z,69.57
2022-10-18T00:56:11.442Z,69.57
2022-10-18T00:57:12.568Z,69.57
2022-10-18T00:58:11.521Z,69.68
2022-10-18T00:59:11.601Z,69.68
2022-10-18T01:00:11.685Z,69.57
2022-10-18T01:01:11.805Z,69.47
2022-10-18T01:02:11.940Z,69.47
2022-10-18T01:03:11.941Z,69.47
2022-10-18T01:04:12.043Z,69.47
2022-10-18T01:05:12.096Z,69.47
2022-10-18T01:06:12.186Z,69.47
2022-10-18T01:07:12.267Z,69.47
2022-10-18T01:08:12.439Z,69.57
2022-10-18T01:09:13.124Z,69.57
2022-10-18T01:10:12.520Z,69.57
2022-10-18T01:11:12.597Z,69.57
2022-10-18T01:12:12.678Z,69.57
2022-10-18T01:13:12.747Z,69.47
2022-10-18T01:14:12.893Z,69.47
2022-10-18T01:15:12.930Z,69.37
2022-10-18T01:16:13.078Z,69.37
2022-10-18T01:17:13.153Z,69.37
2022-10-18T01:18:13.196Z,69.37
2022-10-18T01:19:13.293Z,69.47
2022-10-18T01:20:13.351Z,69.60
2022-10-18T01:21:16.000Z,69.60
2022-10-18T01:22:14.349Z,69.60
2022-10-18T01:23:14.671Z,69.60
2022-10-18T01:24:14.510Z,69.60
2022-10-18T01:25:13.901Z,69.71
2022-10-18T01:26:13.935Z,69.71
2022-10-18T01:27:13.960Z,69.71
2022-10-18T01:28:14.047Z,69.71
2022-10-18T01:29:14.138Z,69.71
2022-10-18T01:30:14.281Z,69.71
2022-10-18T01:31:14.289Z,69.71
2022-10-18T01:32:14.665Z,69.71
2022-10-18T01:33:14.469Z,69.68
2022-10-18T01:34:14.584Z,69.68
2022-10-18T01:35:14.629Z,69.57
2022-10-18T01:36:14.776Z,69.57
2022-10-18T01:37:15.737Z,69.57
2022-10-18T01:38:15.901Z,69.57
2022-10-18T01:39:14.996Z,69.57
2022-10-18T01:40:15.041Z,69.57
2022-10-18T01:41:15.941Z,69.57
2022-10-18T01:42:15.184Z,69.57
2022-10-18T01:43:15.270Z,69.47
2022-10-18T01:44:15.367Z,69.47
2022-10-18T01:45:15.406Z,69.51
2022-10-18T01:46:15.476Z,69.47
2022-10-18T01:47:15.550Z,69.51
2022-10-18T01:48:15.652Z,69.47
2022-10-18T01:49:15.704Z,69.37
2022-10-18T01:50:15.817Z,69.27
2022-10-18T01:51:17.186Z,69.30
2022-10-18T01:52:15.941Z,69.20
2022-10-18T01:53:16.012Z,69.20
2022-10-18T01:54:16.117Z,69.10
2022-10-18T01:55:16.192Z,69.10
2022-10-18T01:56:17.098Z,69.00
2022-10-18T01:57:16.359Z,68.90
2022-10-18T01:58:16.472Z,68.90
2022-10-18T01:59:16.648Z,68.90
2022-10-18T02:00:16.646Z,69.00
2022-10-18T02:01:16.698Z,69.00
2022-10-18T02:02:16.785Z,69.00
2022-10-18T02:03:17.640Z,69.00
2022-10-18T02:04:17.031Z,68.90
2022-10-18T02:05:17.052Z,69.00
2022-10-18T02:06:17.136Z,69.00
2022-10-18T02:07:17.232Z,69.00
2022-10-18T02:08:24.246Z,69.03
2022-10-18T02:09:19.108Z,69.13
2022-10-18T02:10:18.444Z,69.23
2022-10-18T02:11:17.541Z,69.34
2022-10-18T02:12:17.628Z,69.43
2022-10-18T02:13:17.730Z,69.54
2022-10-18T02:14:17.807Z,69.54
2022-10-18T02:15:18.973Z,69.64
2022-10-18T02:16:17.961Z,69.64
2022-10-18T02:17:18.186Z,69.74
2022-10-18T02:18:18.118Z,69.74
2022-10-18T02:19:18.235Z,69.84
2022-10-18T02:20:18.269Z,69.84
2022-10-18T02:21:18.329Z,69.84
2022-10-18T02:22:20.083Z,69.84
2022-10-18T02:23:18.593Z,69.81
2022-10-18T02:24:18.621Z,69.71
2022-10-18T02:25:18.675Z,69.71
2022-10-18T02:26:18.721Z,69.71
2022-10-18T02:27:18.861Z,69.71
2022-10-18T02:28:19.662Z,69.71
2022-10-18T02:29:19.798Z,69.71
2022-10-18T02:30:19.287Z,69.71
2022-10-18T02:31:19.160Z,69.71
2022-10-18T02:32:19.240Z,69.60
2022-10-18T02:33:19.307Z,69.60
2022-10-18T02:34:19.388Z,69.60
2022-10-18T02:35:24.563Z,69.51
2022-10-18T02:36:19.646Z,69.51
2022-10-18T02:37:19.628Z,69.51
2022-10-18T02:38:19.655Z,69.51
2022-10-18T02:39:19.781Z,69.60
2022-10-18T02:40:19.883Z,69.60
2022-10-18T02:41:22.643Z,69.60
2022-10-18T02:42:21.963Z,69.71
2022-10-18T02:43:20.127Z,69.71
2022-10-18T02:44:20.240Z,69.64
2022-10-18T02:45:20.304Z,69.64
2022-10-18T02:46:20.358Z,69.74
2022-10-18T02:47:20.449Z,69.74
2022-10-18T02:48:20.508Z,69.74
2022-10-18T02:49:21.180Z,69.74
2022-10-18T02:50:20.662Z,69.84
2022-10-18T02:51:20.711Z,69.84
2022-10-18T02:52:20.791Z,69.84
2022-10-18T02:53:20.885Z,69.84
2022-10-18T02:54:20.973Z,69.95
2022-10-18T02:55:21.174Z,69.95
2022-10-18T02:56:21.140Z,69.95
2022-10-18T02:57:21.320Z,69.95
2022-10-18T02:58:22.365Z,69.95
2022-10-18T02:59:22.300Z,69.95
2022-10-18T03:00:21.500Z,69.95
2022-10-18T03:01:21.587Z,69.95
2022-10-18T03:02:21.638Z,70.04
2022-10-18T03:03:21.895Z,70.04
2022-10-18T03:04:22.059Z,70.15
2022-10-18T03:05:31.963Z,70.04
2022-10-18T03:06:21.985Z,70.18
2022-10-18T03:07:22.055Z,70.38
2022-10-18T03:08:22.192Z,70.48
2022-10-18T03:09:22.354Z,70.48
2022-10-18T03:10:22.311Z,70.59
2022-10-18T03:11:22.453Z,70.59
2022-10-18T03:12:22.515Z,70.48
2022-10-18T03:13:22.586Z,70.38
2022-10-18T03:18:45.034Z,71.03
2022-10-18T03:19:46.106Z,71.23
2022-10-18T03:20:46.173Z,71.43
2022-10-18T03:21:46.249Z,71.43
2022-10-18T03:22:46.291Z,71.53
2022-10-18T03:23:46.593Z,71.43
2022-10-18T03:24:46.495Z,71.43
2022-10-18T03:25:46.607Z,71.40
2022-10-18T03:26:46.704Z,71.30
2022-10-18T03:27:46.758Z,71.40
2022-10-18T03:28:46.875Z,71.40
2022-10-18T03:29:46.872Z,71.40
2022-10-18T03:30:46.958Z,71.30
2022-10-18T03:31:47.074Z,71.40
2022-10-18T03:32:47.129Z,71.40
2022-10-18T03:33:47.208Z,71.40
2022-10-18T03:34:47.313Z,71.40
2022-10-18T03:35:47.391Z,71.40
2022-10-18T03:36:47.483Z,71.40
2022-10-18T03:37:47.588Z,71.36
2022-10-18T03:38:47.627Z,71.36
2022-10-18T03:39:47.712Z,71.40
2022-10-18T03:40:47.790Z,71.40
2022-10-18T03:41:47.885Z,71.50
2022-10-18T03:42:47.983Z,71.50
2022-10-18T03:43:48.837Z,71.60
2022-10-18T03:44:48.147Z,71.70
2022-10-18T03:45:48.225Z,71.70
2022-10-18T03:46:48.339Z,71.80
2022-10-18T03:47:48.377Z,71.80
2022-10-18T03:48:48.457Z,71.80
2022-10-18T03:49:50.957Z,71.80
2022-10-18T03:50:48.631Z,71.91
2022-10-18T03:51:48.748Z,71.91
2022-10-18T03:52:48.785Z,71.91
2022-10-18T03:53:48.880Z,71.91
2022-10-18T03:54:48.963Z,72.01
2022-10-18T03:55:49.095Z,72.01
2022-10-18T03:56:49.156Z,71.91
2022-10-18T03:57:49.216Z,71.80
2022-10-18T03:58:49.312Z,71.70
2022-10-18T03:59:49.383Z,71.70
2022-10-18T04:00:49.486Z,71.60
2022-10-18T04:01:49.632Z,71.60
2022-10-18T04:02:52.086Z,71.50
2022-10-18T04:03:49.753Z,71.50
2022-10-18T04:04:49.860Z,71.40
2022-10-18T04:05:49.938Z,71.50
2022-10-18T04:06:50.051Z,71.50
2022-10-18T04:07:50.124Z,71.50
2022-10-18T04:08:50.195Z,71.50
2022-10-18T04:09:50.296Z,71.50
2022-10-18T04:10:50.372Z,71.60
2022-10-18T04:11:50.489Z,71.67
2022-10-18T04:12:50.533Z,71.77
2022-10-18T04:13:50.624Z,71.80
2022-10-18T04:14:50.709Z,71.77
2022-10-18T04:15:50.834Z,71.77
2022-10-18T04:16:50.884Z,71.88
2022-10-18T04:17:50.973Z,71.88
2022-10-18T04:18:51.096Z,71.88
2022-10-18T04:19:51.138Z,71.97
2022-10-18T04:20:51.215Z,71.97
2022-10-18T04:21:51.350Z,71.97
2022-10-18T04:22:51.394Z,71.97
2022-10-18T04:23:51.468Z,72.08
2022-10-18T04:24:51.560Z,72.08
2022-10-18T04:25:52.564Z,72.08
2022-10-18T04:26:51.790Z,72.08
2022-10-18T04:27:51.828Z,72.08
2022-10-18T04:28:52.069Z,72.08
2022-10-18T04:29:51.984Z,71.97
2022-10-18T04:30:52.054Z,71.97
2022-10-18T04:31:52.112Z,71.88
2022-10-18T04:32:52.193Z,71.88
2022-10-18T04:33:52.330Z,71.97
2022-10-18T04:34:52.371Z,71.97
2022-10-18T04:35:52.465Z,71.88
2022-10-18T04:37:54.436Z,71.88
2022-10-18T04:38:55.610Z,71.88
2022-10-18T04:39:55.606Z,71.97
2022-10-18T04:40:55.734Z,71.97
2022-10-18T04:41:55.823Z,71.97
2022-10-18T04:42:55.859Z,72.08
2022-10-18T04:43:55.989Z,72.08
2022-10-18T04:44:56.069Z,72.08
2022-10-18T04:45:56.261Z,72.08
2022-10-18T04:46:56.198Z,72.08
2022-10-18T04:47:56.273Z,72.08
2022-10-18T04:48:56.351Z,71.97
2022-10-18T04:49:56.444Z,71.97
2022-10-18T04:50:56.604Z,71.97
2022-10-18T04:51:57.638Z,71.97
2022-10-18T04:52:56.733Z,71.97
2022-10-18T04:53:56.795Z,71.97
2022-10-18T04:54:56.844Z,71.97
2022-10-18T04:55:56.930Z,71.97
2022-10-18T04:57:05.288Z,71.97
2022-10-18T04:57:57.216Z,72.08
2022-10-18T04:58:57.187Z,72.08
2022-10-18T04:59:57.282Z,72.08
2022-10-18T05:00:57.363Z,72.08
2022-10-18T05:01:57.591Z,72.08
2022-10-18T05:03:01.477Z,72.08
2022-10-18T05:03:57.670Z,72.17
2022-10-18T05:04:57.706Z,72.17
2022-10-18T05:06:02.705Z,72.17
2022-10-18T05:06:57.886Z,72.08
2022-10-18T05:07:57.984Z,72.08
2022-10-18T05:08:58.042Z,72.08
2022-10-18T05:10:09.157Z,71.97
2022-10-18T05:10:58.325Z,71.88
2022-10-18T05:11:58.306Z,71.77
2022-10-18T05:12:58.406Z,71.67
2022-10-18T05:13:58.507Z,71.77
2022-10-18T05:14:58.568Z,71.77
2022-10-18T05:15:58.699Z,71.77
2022-10-18T05:16:58.727Z,71.77
2022-10-18T05:17:58.811Z,71.77
2022-10-18T05:18:58.909Z,71.88
2022-10-18T05:19:59.006Z,71.88
2022-10-18T05:20:59.080Z,71.88
2022-10-18T05:22:00.345Z,71.88
2022-10-18T05:22:59.257Z,71.97
2022-10-18T05:23:59.364Z,71.97
2022-10-18T05:25:00.876Z,71.97
2022-10-18T05:25:59.493Z,71.97
2022-10-18T05:26:59.567Z,71.97
2022-10-18T05:28:03.444Z,71.97
2022-10-18T05:28:59.820Z,72.08
2022-10-18T05:30:01.383Z,72.08
2022-10-18T05:30:59.906Z,72.17
2022-10-18T05:32:00.000Z,72.17
2022-10-18T05:33:00.086Z,72.17
2022-10-18T05:34:00.167Z,72.28
2022-10-18T05:35:00.240Z,72.28
2022-10-18T05:36:00.318Z,72.38
2022-10-18T05:37:00.411Z,72.38
2022-10-18T05:38:00.486Z,72.38
2022-10-18T05:39:04.036Z,72.38
2022-10-18T05:40:00.662Z,72.28
2022-10-18T05:41:00.743Z,72.38
2022-10-18T05:42:00.820Z,72.41
2022-10-18T05:43:00.903Z,72.31
2022-10-18T05:44:01.007Z,72.31
2022-10-18T05:45:01.036Z,72.21
2022-10-18T05:46:01.132Z,72.31
2022-10-18T05:47:01.208Z,72.31
2022-10-18T05:48:01.294Z,72.31
2022-10-18T05:49:01.376Z,72.41
2022-10-18T05:50:01.510Z,72.41
2022-10-18T05:51:01.548Z,72.41
2022-10-18T05:52:01.630Z,72.41
2022-10-18T05:53:12.094Z,72.52
2022-10-18T05:54:01.825Z,72.52
2022-10-18T05:55:01.883Z,72.52
2022-10-18T05:56:01.934Z,72.62
2022-10-18T05:57:02.018Z,72.62
2022-10-18T05:58:02.093Z,72.72
2022-10-18T05:59:02.188Z,72.72
2022-10-18T06:00:02.289Z,72.72
2022-10-18T06:01:02.357Z,72.72
2022-10-18T06:02:02.434Z,72.82
2022-10-18T06:03:02.515Z,72.82
2022-10-18T06:04:02.597Z,72.82
2022-10-18T06:05:02.701Z,72.92
2022-10-18T06:06:02.761Z,72.92
2022-10-18T06:07:02.834Z,72.92
2022-10-18T06:08:05.278Z,72.78
2022-10-18T06:09:03.005Z,72.78
2022-10-18T06:10:03.116Z,72.78
2022-10-18T06:11:03.175Z,72.78
2022-10-18T06:12:03.231Z,72.78
2022-10-18T06:13:03.322Z,72.78
2022-10-18T06:14:03.407Z,72.78
2022-10-18T06:15:03.512Z,72.78
2022-10-18T06:16:03.557Z,72.78
2022-10-18T06:17:03.634Z,72.78
2022-10-18T06:18:03.906Z,72.78
2022-10-18T06:19:03.793Z,72.78
2022-10-18T06:20:04.012Z,72.69
2022-10-18T06:21:03.970Z,72.69
2022-10-18T06:22:04.048Z,72.69
2022-10-18T06:23:04.127Z,72.78
2022-10-18T06:24:04.238Z,72.78
2022-10-18T06:25:04.316Z,72.78
2022-10-18T06:26:04.394Z,72.78
2022-10-18T06:28:05.975Z,72.89
2022-10-18T06:29:04.725Z,72.89
2022-10-18T06:30:04.745Z,72.89
2022-10-18T06:31:04.769Z,72.89
2022-10-18T06:32:04.850Z,72.89
2022-10-18T06:33:04.930Z,72.99
2022-10-18T06:34:05.015Z,72.99
2022-10-18T06:35:05.144Z,73.09
2022-10-18T06:36:05.207Z,73.09
2022-10-18T06:37:05.293Z,73.09
2022-10-18T06:38:05.375Z,73.19
2022-10-18T06:39:05.486Z,73.29
2022-10-18T06:40:05.551Z,73.29
2022-10-18T06:41:05.615Z,73.29
2022-10-18T06:42:05.705Z,73.39
2022-10-18T06:43:19.542Z,73.39
2022-10-18T06:44:05.868Z,73.39
2022-10-18T06:45:05.964Z,73.39
2022-10-18T06:46:06.015Z,73.39
2022-10-18T06:47:06.113Z,73.39
2022-10-18T06:48:06.185Z,73.39
2022-10-18T06:49:06.228Z,73.39
2022-10-18T06:50:06.333Z,73.39
2022-10-18T06:51:06.414Z,73.39
2022-10-18T06:52:06.497Z,73.39
2022-10-18T06:53:06.603Z,73.39
2022-10-18T06:54:17.639Z,73.46
2022-10-18T06:55:09.137Z,73.46
2022-10-18T06:56:06.795Z,73.46
2022-10-18T06:57:06.881Z,73.57
2022-10-18T06:58:06.963Z,73.57
2022-10-18T06:59:07.053Z,73.57
2022-10-18T07:00:07.156Z,73.57
2022-10-18T07:01:07.195Z,73.66
2022-10-18T07:02:07.351Z,73.66
2022-10-18T07:03:07.350Z,73.77
2022-10-18T07:04:07.431Z,73.77
2022-10-18T07:05:07.532Z,73.87
2022-10-18T07:06:07.619Z,73.87
2022-10-18T07:07:07.701Z,73.97
2022-10-18T07:08:07.775Z,74.07
2022-10-18T07:09:07.876Z,74.07
2022-10-18T07:10:09.273Z,74.17
2022-10-18T07:11:08.053Z,74.27
2022-10-18T07:12:08.148Z,74.27
2022-10-18T07:13:30.771Z,74.27
2022-10-18T07:14:08.837Z,74.27
2022-10-18T07:15:09.517Z,74.27
2022-10-18T07:16:09.791Z,74.27
2022-10-18T07:17:08.535Z,74.24
2022-10-18T07:18:08.638Z,74.24
2022-10-18T07:19:08.723Z,74.14
2022-10-18T07:20:08.870Z,74.14
2022-10-18T07:21:08.905Z,74.14
2022-10-18T07:22:08.971Z,74.14
2022-10-18T07:23:09.060Z,74.04
2022-10-18T07:24:09.148Z,74.04
2022-10-18T07:25:09.281Z,74.04
2022-10-18T07:26:09.312Z,74.04
2022-10-18T07:27:09.385Z,74.04
2022-10-18T07:28:09.478Z,74.04
2022-10-18T07:29:09.672Z,74.04
2022-10-18T07:30:09.685Z,74.04
2022-10-18T07:31:09.709Z,73.93
2022-10-18T07:32:09.804Z,74.04
2022-10-18T07:33:09.880Z,74.00
2022-10-18T07:34:09.966Z,74.10
2022-10-18T07:36:10.156Z,74.10
2022-10-18T07:37:10.249Z,74.10
2022-10-18T07:38:10.334Z,74.21
2022-10-18T07:39:10.425Z,74.21
2022-10-18T07:40:10.501Z,74.21
2022-10-18T07:41:10.547Z,74.21
2022-10-18T07:42:10.637Z,74.10
2022-10-18T07:43:12.319Z,74.10
2022-10-18T07:44:10.841Z,74.10
2022-10-18T07:45:10.916Z,74.00
2022-10-18T07:46:10.976Z,74.00
2022-10-18T07:47:11.056Z,74.00
2022-10-18T07:48:11.190Z,74.10
2022-10-18T07:49:11.222Z,74.10
2022-10-18T07:50:11.320Z,73.97
2022-10-18T07:51:11.394Z,74.07
2022-10-18T07:52:11.520Z,74.17
2022-10-18T07:53:11.558Z,74.27
2022-10-18T07:54:11.646Z,74.27
2022-10-18T07:55:11.747Z,74.17
2022-10-18T07:56:11.798Z,74.17
2022-10-18T07:57:11.906Z,74.27
2022-10-18T07:58:11.979Z,74.27
2022-10-18T07:59:12.060Z,74.37
2022-10-18T08:00:12.156Z,74.37
2022-10-18T08:01:12.306Z,74.48
2022-10-18T08:02:12.309Z,74.68
2022-10-18T08:03:12.390Z,74.57
2022-10-18T08:04:16.252Z,74.68
2022-10-18T08:05:12.572Z,74.68
2022-10-18T08:06:12.620Z,74.57
2022-10-18T08:07:12.705Z,74.68
2022-10-18T08:08:12.820Z,74.68
2022-10-18T08:09:12.866Z,74.68
2022-10-18T08:10:13.000Z,74.68
2022-10-18T08:11:13.053Z,74.68
2022-10-18T08:12:13.142Z,74.77
2022-10-18T08:13:13.256Z,74.64
2022-10-18T08:14:13.300Z,74.54
2022-10-18T08:15:13.425Z,74.54
2022-10-18T08:16:13.466Z,74.33
2022-10-18T08:17:13.541Z,74.24
2022-10-18T08:18:13.622Z,74.24
2022-10-18T08:19:13.703Z,74.13
2022-10-18T08:20:29.954Z,74.04
2022-10-18T08:21:13.895Z,74.04
2022-10-18T08:22:13.987Z,73.93
2022-10-18T08:23:14.076Z,73.93
2022-10-18T08:24:14.155Z,73.93
2022-10-18T08:25:14.256Z,73.93
2022-10-18T08:26:14.343Z,73.93
2022-10-18T08:27:14.440Z,74.04
2022-10-18T08:28:14.517Z,73.93
2022-10-18T08:29:24.086Z,73.93
2022-10-18T08:30:14.694Z,73.83
2022-10-18T08:31:14.776Z,73.83
2022-10-18T08:32:14.862Z,73.83
2022-10-18T08:33:14.956Z,73.93
2022-10-18T08:34:19.530Z,73.93
2022-10-18T08:35:15.126Z,73.83
2022-10-18T08:36:15.228Z,73.93
2022-10-18T08:37:15.313Z,73.93
2022-10-18T08:38:18.188Z,73.93
2022-10-18T08:39:15.467Z,74.04
2022-10-18T08:40:15.580Z,74.13
2022-10-18T08:41:15.621Z,74.33
2022-10-18T08:42:15.704Z,74.33
2022-10-18T08:43:20.706Z,74.33
2022-10-18T08:44:15.859Z,74.33
2022-10-18T08:45:30.015Z,74.44
2022-10-18T08:46:16.038Z,74.44
2022-10-18T08:47:16.122Z,74.54
2022-10-18T08:48:16.201Z,74.71
2022-10-18T08:49:16.283Z,74.60
2022-10-18T08:50:16.384Z,74.40
2022-10-18T08:51:16.492Z,74.10
2022-10-18T08:52:16.547Z,73.59
2022-10-18T08:53:16.631Z,73.39
2022-10-18T08:54:16.719Z,73.39
2022-10-18T08:55:16.818Z,73.19
2022-10-18T08:56:16.904Z,72.88
2022-10-18T08:57:16.984Z,72.85
2022-10-18T08:58:17.071Z,72.85
2022-10-18T08:59:17.165Z,72.85
2022-10-18T09:00:17.282Z,72.85
2022-10-18T09:01:17.339Z,72.85
2022-10-18T09:02:17.511Z,72.95
2022-10-18T09:03:17.549Z,72.95
2022-10-18T09:04:17.565Z,73.05
2022-10-18T09:05:17.664Z,73.25
2022-10-18T09:06:21.161Z,73.25
2022-10-18T09:07:17.828Z,73.36
2022-10-18T09:08:17.917Z,73.46
2022-10-18T09:09:18.000Z,73.46
2022-10-18T09:10:18.199Z,73.56
2022-10-18T09:11:18.195Z,73.56
2022-10-18T09:12:18.279Z,73.56
2022-10-18T09:13:18.363Z,73.56
2022-10-18T09:14:18.464Z,73.56
2022-10-18T09:15:18.534Z,73.56
2022-10-18T09:16:18.578Z,73.66
2022-10-18T09:17:18.661Z,73.66
2022-10-18T09:18:18.753Z,73.56
2022-10-18T09:19:18.847Z,73.56
2022-10-18T09:20:18.983Z,73.66
2022-10-18T09:21:19.045Z,73.66
2022-10-18T09:22:19.087Z,73.76
2022-10-18T09:23:19.191Z,73.86
2022-10-18T09:24:19.245Z,73.93
2022-10-18T09:25:19.344Z,73.93
2022-10-18T09:26:19.527Z,74.03
2022-10-18T09:27:28.547Z,74.03
2022-10-18T09:28:19.548Z,74.03
2022-10-18T09:30:19.724Z,74.23
2022-10-18T09:31:19.880Z,74.43
2022-10-18T09:32:19.897Z,74.54
2022-10-18T09:33:19.976Z,74.54
2022-10-18T09:34:20.061Z,74.40
2022-10-18T09:35:20.157Z,74.30
2022-10-18T09:36:20.210Z,74.10
2022-10-18T09:37:20.293Z,74.10
2022-10-18T09:38:20.411Z,74.10
2022-10-18T09:39:20.485Z,73.90
2022-10-18T09:40:20.622Z,73.90
2022-10-18T09:41:20.601Z,73.96
2022-10-18T09:42:20.675Z,74.16
2022-10-18T09:43:20.742Z,74.37
2022-10-18T09:44:20.823Z,74.46
2022-10-18T09:45:20.937Z,74.33
2022-10-18T09:46:21.005Z,74.13
2022-10-18T09:47:21.128Z,73.93
2022-10-18T09:48:21.147Z,74.02
2022-10-18T09:49:21.223Z,73.93
2022-10-18T09:50:21.325Z,73.99
2022-10-18T09:51:21.379Z,74.09
2022-10-18T09:52:21.451Z,73.79
2022-10-18T09:53:21.547Z,73.49
2022-10-18T09:54:21.585Z,73.28
2022-10-18T09:55:21.693Z,73.49
2022-10-18T09:56:21.726Z,73.58
2022-10-18T09:57:21.806Z,73.49
2022-10-18T09:58:21.875Z,73.38
2022-10-18T09:59:21.974Z,73.38
2022-10-18T10:00:22.066Z,73.58
2022-10-18T10:01:22.152Z,73.55
2022-10-18T10:02:22.479Z,73.35
2022-10-18T10:03:22.291Z,73.15
2022-10-18T10:04:22.371Z,73.25
2022-10-18T10:05:22.566Z,73.35
2022-10-18T10:06:22.538Z,72.75
2022-10-18T10:07:22.623Z,72.54
2022-10-18T10:08:22.691Z,72.44
2022-10-18T10:09:22.767Z,72.31
2022-10-18T10:10:22.869Z,72.20
2022-10-18T10:11:22.908Z,72.20
2022-10-18T10:12:22.984Z,72.31
2022-10-18T10:13:23.293Z,72.31
2022-10-18T10:14:23.128Z,72.31
2022-10-18T10:15:23.241Z,72.31
2022-10-18T10:16:23.323Z,72.51
2022-10-18T10:17:23.407Z,72.51
2022-10-18T10:18:23.494Z,72.51
2022-10-18T10:19:23.574Z,71.97
2022-10-18T10:20:23.673Z,71.87
2022-10-18T10:21:23.772Z,71.77
2022-10-18T10:22:23.810Z,71.57
2022-10-18T10:23:23.891Z,70.97
2022-10-18T10:24:26.171Z,70.93
2022-10-18T10:25:24.090Z,70.83
2022-10-18T10:26:24.127Z,70.53
2022-10-18T10:27:24.231Z,69.99
2022-10-18T10:28:24.379Z,70.09
2022-10-18T10:29:43.556Z,69.99
2022-10-18T10:30:24.480Z,69.85
2022-10-18T10:31:24.540Z,69.96
2022-10-18T10:32:24.742Z,70.12
2022-10-18T10:33:24.710Z,69.82
2022-10-18T10:34:24.802Z,69.69
2022-10-18T10:35:41.326Z,68.98
2022-10-18T10:36:24.978Z,68.38
2022-10-18T10:37:25.056Z,68.45
2022-10-18T10:38:25.171Z,68.25
2022-10-18T10:39:25.217Z,68.05
2022-10-18T10:40:28.490Z,68.12
2022-10-18T10:41:25.446Z,68.21
2022-10-18T10:42:25.450Z,68.32
2022-10-18T10:43:37.593Z,67.91
2022-10-18T10:44:25.731Z,67.48
2022-10-18T10:45:25.707Z,67.28
2022-10-18T10:46:25.814Z,66.17
2022-10-18T10:47:25.834Z,65.07
2022-10-18T10:48:29.843Z,64.77
2022-10-18T10:49:41.610Z,64.24
2022-10-18T10:50:26.789Z,63.53
2022-10-18T10:51:26.139Z,63.33
2022-10-18T10:52:27.833Z,63.60
2022-10-18T10:53:26.306Z,62.90
2022-10-18T10:54:26.396Z,63.31
2022-10-18T10:55:34.966Z,63.60
2022-10-18T10:56:26.545Z,63.90
2022-10-18T10:57:26.616Z,63.90
2022-10-18T10:58:26.727Z,63.90
2022-10-18T10:59:26.788Z,64.07
2022-10-18T11:00:26.945Z,64.07
2022-10-18T11:01:27.013Z,64.18
2022-10-18T11:02:27.030Z,63.98
2022-10-18T11:03:29.798Z,64.11
2022-10-18T11:04:27.212Z,63.81
2022-10-18T11:05:27.320Z,64.01
2022-10-18T11:06:27.378Z,63.70
2022-10-18T11:07:27.431Z,64.11
2022-10-18T11:08:27.519Z,64.21
2022-10-18T11:09:27.571Z,64.31
2022-10-18T11:10:27.657Z,64.04
2022-10-18T11:11:27.751Z,64.14
2022-10-18T11:12:27.824Z,64.04
2022-10-18T11:13:27.916Z,64.34
2022-10-18T11:14:28.006Z,64.43
2022-10-18T11:15:28.124Z,64.04
2022-10-18T11:16:28.188Z,64.34
2022-10-18T11:17:28.289Z,64.43
2022-10-18T11:18:28.335Z,64.54
2022-10-18T11:19:28.554Z,64.94
2022-10-18T11:20:28.564Z,64.84
2022-10-18T11:21:28.587Z,63.73
2022-10-18T11:22:28.680Z,63.81
2022-10-18T11:23:28.767Z,64.11
2022-10-18T11:24:28.831Z,63.70
2022-10-18T11:25:28.892Z,63.50
2022-10-18T11:26:28.974Z,63.31
2022-10-18T11:27:29.067Z,63.17
2022-10-18T11:28:29.189Z,62.87
2022-10-18T11:29:29.246Z,62.87
2022-10-18T11:30:29.379Z,62.24
2022-10-18T11:31:29.416Z,62.24
2022-10-18T11:32:29.924Z,62.14
2022-10-18T11:33:50.070Z,62.14
2022-10-18T11:34:29.664Z,62.34
2022-10-18T11:35:29.768Z,61.71
2022-10-18T11:36:31.230Z,62.01
2022-10-18T11:37:33.271Z,61.71
2022-10-18T11:38:29.960Z,61.71
2022-10-18T11:39:30.068Z,61.71
2022-10-18T11:40:30.127Z,61.81
2022-10-18T11:41:30.216Z,61.91
2022-10-18T11:42:30.267Z,61.61
2022-10-18T11:43:44.528Z,61.41
2022-10-18T11:44:30.494Z,60.91
2022-10-18T11:46:30.625Z,60.98
2022-10-18T11:47:30.957Z,60.78
2022-10-18T11:48:30.848Z,59.98
2022-10-18T11:49:30.887Z,59.48
2022-10-18T11:50:30.979Z,59.48
2022-10-18T11:51:38.834Z,59.38
2022-10-18T11:52:31.186Z,59.58
2022-10-18T11:53:31.229Z,59.38
2022-10-18T11:54:31.368Z,59.38
2022-10-18T11:55:33.095Z,58.78
2022-10-18T11:56:31.462Z,58.37
2022-10-18T11:57:31.947Z,58.18
2022-10-18T11:58:31.608Z,58.18
2022-10-18T11:59:31.696Z,58.68
2022-10-18T12:00:31.807Z,58.98
2022-10-18T12:01:31.873Z,58.87
2022-10-18T12:02:32.532Z,59.18
2022-10-18T12:03:32.045Z,59.18
2022-10-18T12:04:32.255Z,59.05
2022-10-18T12:05:32.207Z,58.65
2022-10-18T12:06:32.275Z,58.75
2022-10-18T12:07:32.617Z,59.25
2022-10-18T12:08:32.452Z,59.55
2022-10-18T12:09:32.530Z,59.55
2022-10-18T12:10:44.360Z,59.75
2022-10-18T12:11:32.743Z,59.78
2022-10-18T12:12:33.286Z,59.48
2022-10-18T12:13:32.878Z,59.28
2022-10-18T12:14:32.996Z,59.48
2022-10-18T12:15:33.054Z,58.98
2022-10-18T12:16:50.517Z,58.58
2022-10-18T12:17:46.079Z,58.68
2022-10-18T12:18:33.325Z,58.87
2022-10-18T12:19:33.416Z,58.87
2022-10-18T12:20:33.563Z,58.98
2022-10-18T12:21:33.607Z,59.18
2022-10-18T12:22:33.877Z,58.68
2022-10-18T12:23:33.757Z,57.87
2022-10-18T12:24:33.864Z,56.98
2022-10-18T12:25:33.942Z,56.95
2022-10-18T12:26:33.986Z,56.45
2022-10-18T12:27:34.091Z,57.05
2022-10-18T12:28:34.217Z,56.95
2022-10-18T12:29:34.196Z,57.35
2022-10-18T12:30:34.318Z,57.45
2022-10-18T12:31:34.410Z,57.75
2022-10-18T12:32:34.808Z,58.05
2022-10-18T12:33:34.541Z,57.85
2022-10-18T12:34:34.595Z,57.75
2022-10-18T12:35:34.701Z,57.15
2022-10-18T12:36:34.806Z,57.24
2022-10-18T12:37:35.160Z,57.45
2022-10-18T12:38:34.899Z,57.15
2022-10-18T12:39:43.428Z,56.52
2022-10-18T12:40:35.138Z,56.72
2022-10-18T12:41:35.158Z,57.12
2022-10-18T12:42:35.230Z,56.72
2022-10-18T12:43:35.329Z,56.52
2022-10-18T12:44:35.466Z,56.22
2022-10-18T12:45:35.547Z,56.52
2022-10-18T12:46:35.586Z,56.72
2022-10-18T12:47:35.832Z,55.92
2022-10-18T12:48:35.838Z,55.12
2022-10-18T12:49:37.311Z,55.42
2022-10-18T12:50:35.940Z,55.42
2022-10-18T12:51:36.001Z,55.72
2022-10-18T12:52:36.107Z,55.40
2022-10-18T12:53:36.270Z,55.59
2022-10-18T12:54:36.270Z,55.79
2022-10-18T12:55:36.345Z,55.99
2022-10-18T12:56:36.447Z,55.79
2022-10-18T12:57:36.484Z,56.09
2022-10-18T12:58:36.589Z,55.59
2022-10-18T12:59:36.720Z,55.89
2022-10-18T13:00:36.743Z,55.29
2022-10-18T13:01:36.957Z,55.40
2022-10-18T13:02:37.221Z,55.40